map of MTR home
MTR - Airport
Location
City:  Montería, Córdoba, Colombia
Name:Los Garzones Airport
ICAO:SKMR
IATA:MTR

Details
Type:Airport (Aerodrome, Airfield)
Latitude:8°49'25"N (8.823678)
Longitude:75°49'33"W (-75.825943)
Elevation:36 ft (11 m)
Variation:6.77°W (WMM2015 magnetic declination)
-0.14° annual change
Runways:1
Longest:6285 × 115 ft (1916 × 35 m), paved

Time
Time Zone:UTC-5
Local Time:

Weather
METAR:SKMR 141200Z 00000KT 9000 FEW015 23/23 A2986 RMK HZ

Related Locations
Nearby:
Farthest:XCH: 12286 mi / 19772 km
Christmas Island, CX

Find:

   beyond  
but within

Other Information
Maps:
NOTAMs:
Links:
Sources:

  
flag of Colombia
flag of Córdoba
  

Sectional Chart

Flight Planning
at skyvector.com

Satellite Image

Google Maps Satellite view

 

Copyright © 2004-2017 Karl L. Swartz. All rights reserved.
The Great Circle Mapper name and logo are trademarks of the Great Circle Mapper.
All other trademarks mentioned herein belong to their respective owners.
Please see credits for attibutions and further copyright information.

  Follow gcmap on Facebook Follow gcmap on Twitter Follow gcmap on Google+ GCmap on LinkedIn

hCard Microformat

Geo Microformat